Time;durP1;ratioP1;P1;durP2;ratioP2;P2;SDS_P1;SDS_P2;PMS_P1;PMS_P2;Temp;Humidity;BMP_temperature;BMP_pressure;BME280_temperature;BME280_humidity;BME280_pressure;Samples;Min_cycle;Max_cycle;Signal;HPM_P1;HPM_P2
2021/12/16 00:09:01;;;;;;;35.40;20.47;;;11.40;99.90;;;;;;6339453;22;20570;-89
2021/12/16 00:29:11;;;;;;;33.90;20.00;;;11.60;99.90;;;;;;6339175;22;20149;-89
2021/12/16 00:33:43;;;;;;;28.93;19.00;;;11.60;99.90;;;;;;6339080;22;20151;-90
2021/12/16 00:36:11;;;;;;;32.37;19.57;;;11.50;99.90;;;;;;6311764;22;20180;-89
2021/12/16 00:38:39;;;;;;;32.80;18.80;;;11.50;99.90;;;;;;6312773;22;20173;-89
2021/12/16 00:41:05;;;;;;;33.07;19.93;;;11.50;99.90;;;;;;6313530;22;20242;-89
2021/12/16 00:43:45;;;;;;;36.93;20.23;;;11.50;99.90;;;;;;6312844;22;20149;-89
2021/12/16 00:54:24;;;;;;;34.30;19.30;;;11.70;99.90;;;;;;6340375;22;20480;-89
2021/12/16 00:56:58;;;;;;;36.67;20.97;;;11.50;99.90;;;;;;6313662;22;20141;-89
2021/12/16 00:59:27;;;;;;;33.77;19.40;;;11.40;99.90;;;;;;6312764;22;20156;-90
2021/12/16 01:40:28;;;;;;;36.13;20.50;;;11.40;99.90;;;;;;6347214;22;20149;-89
2021/12/16 01:51:24;;;;;;;38.07;21.57;;;11.40;99.90;;;;;;6339890;22;20274;-89
2021/12/16 01:56:59;;;;;;;43.00;21.50;;;11.40;99.90;;;;;;6339719;22;20226;-89
2021/12/16 01:59:32;;;;;;;40.73;22.83;;;11.40;99.90;;;;;;6313014;22;20152;-89
2021/12/16 02:02:10;;;;;;;37.00;22.03;;;11.30;99.90;;;;;;6312342;22;20199;-89
2021/12/16 02:04:43;;;;;;;34.97;20.77;;;11.30;99.90;;;;;;6312751;22;20173;-89
2021/12/16 02:07:26;;;;;;;33.27;20.20;;;11.40;99.90;;;;;;6312219;22;20145;-89
2021/12/16 02:09:56;;;;;;;37.97;22.47;;;11.40;99.90;;;;;;6312390;22;20179;-88
2021/12/16 04:04:40;;;;;;;35.60;21.20;;;11.40;99.90;;;;;;6335293;22;20179;-89
2021/12/16 04:07:07;;;;;;;35.87;21.63;;;11.60;99.90;;;;;;6311512;22;20167;-89
2021/12/16 04:09:33;;;;;;;42.90;23.13;;;11.60;99.90;;;;;;6311486;22;20153;-88
2021/12/16 04:12:11;;;;;;;39.10;22.40;;;11.60;99.90;;;;;;6311637;22;20145;-89
2021/12/16 04:14:39;;;;;;;38.87;22.57;;;11.70;99.90;;;;;;6313431;22;20157;-89
2021/12/16 04:17:07;;;;;;;36.90;22.37;;;11.80;99.90;;;;;;6313591;22;20177;-89
2021/12/16 04:19:33;;;;;;;43.20;24.13;;;11.70;99.90;;;;;;6313397;22;20592;-89
2021/12/16 04:22:11;;;;;;;37.47;22.93;;;11.60;99.90;;;;;;6313380;22;20197;-89
2021/12/16 04:24:38;;;;;;;38.30;22.93;;;11.60;99.90;;;;;;6313530;22;20152;-88
2021/12/16 04:27:06;;;;;;;36.77;22.27;;;11.50;99.90;;;;;;6313705;22;20462;-89
2021/12/16 04:29:32;;;;;;;38.77;23.20;;;11.50;99.90;;;;;;6313434;22;20149;-89
2021/12/16 04:31:59;;;;;;;40.13;22.80;;;11.60;99.90;;;;;;6313586;22;20151;-89
2021/12/16 04:34:25;;;;;;;38.37;23.33;;;11.50;99.90;;;;;;6313098;22;20202;-89
2021/12/16 04:36:53;;;;;;;42.17;22.80;;;11.50;99.90;;;;;;6313217;22;20149;-89
2021/12/16 04:39:24;;;;;;;38.63;22.73;;;11.50;99.90;;;;;;6313506;22;20537;-89
2021/12/16 04:41:52;;;;;;;35.30;22.17;;;11.60;99.90;;;;;;6313595;22;20204;-89
2021/12/16 04:44:18;;;;;;;37.37;22.67;;;11.50;99.90;;;;;;6313322;22;20172;-89
2021/12/16 04:46:45;;;;;;;38.10;22.33;;;11.50;99.90;;;;;;6312968;22;20161;-89
2021/12/16 04:49:12;;;;;;;35.70;20.93;;;11.50;99.90;;;;;;6313131;22;20145;-88
2021/12/16 04:51:41;;;;;;;36.07;21.70;;;11.50;99.90;;;;;;6312966;22;20224;-89
2021/12/16 04:54:09;;;;;;;34.87;21.13;;;11.50;99.90;;;;;;6312942;22;20159;-88
2021/12/16 04:56:37;;;;;;;38.33;21.70;;;11.60;99.90;;;;;;6313266;22;20175;-89
2021/12/16 04:59:08;;;;;;;42.60;22.83;;;11.50;99.90;;;;;;6313170;22;20137;-89
2021/12/16 05:01:39;;;;;;;38.27;22.63;;;11.50;99.90;;;;;;6313222;22;20268;-89
2021/12/16 05:04:05;;;;;;;35.67;22.13;;;11.60;99.90;;;;;;6312801;22;20153;-89
2021/12/16 05:06:31;;;;;;;38.43;21.30;;;11.50;99.90;;;;;;6313100;22;20570;-88
2021/12/16 05:08:58;;;;;;;38.07;21.27;;;11.60;99.90;;;;;;6313485;22;20149;-89
2021/12/16 05:11:23;;;;;;;39.37;22.47;;;11.60;99.90;;;;;;6313098;22;20142;-89
2021/12/16 05:13:49;;;;;;;37.07;22.80;;;11.70;99.90;;;;;;6312580;22;20153;-89
2021/12/16 05:16:15;;;;;;;37.97;22.90;;;11.60;99.90;;;;;;6313055;22;20188;-89
2021/12/16 05:18:42;;;;;;;37.40;22.47;;;11.60;99.90;;;;;;6313884;22;20146;-89
2021/12/16 05:21:36;;;;;;;35.40;22.47;;;11.50;99.90;;;;;;6313512;22;20255;-88
2021/12/16 05:26:39;;;;;;;41.80;23.47;;;11.50;99.90;;;;;;6351040;22;20152;-88
2021/12/16 05:29:05;;;;;;;36.60;21.93;;;11.50;99.90;;;;;;6313164;22;20141;-88
2021/12/16 05:31:30;;;;;;;38.90;21.77;;;11.50;99.90;;;;;;6312913;22;20149;-89
2021/12/16 05:33:58;;;;;;;42.80;22.63;;;11.50;99.90;;;;;;6312759;22;20145;-89
2021/12/16 05:36:25;;;;;;;36.33;22.40;;;11.60;99.90;;;;;;6312865;22;20145;-89
2021/12/16 05:38:51;;;;;;;38.50;22.07;;;11.50;99.90;;;;;;6312814;22;20148;-89
2021/12/16 05:41:21;;;;;;;38.03;21.67;;;11.60;99.90;;;;;;6312774;22;20188;-89
2021/12/16 05:43:48;;;;;;;39.50;22.17;;;11.60;99.90;;;;;;6313036;22;20173;-89
2021/12/16 05:46:16;;;;;;;38.43;22.77;;;11.50;99.90;;;;;;6312436;22;20165;-89
2021/12/16 05:48:45;;;;;;;36.00;21.97;;;11.70;99.90;;;;;;6312382;22;20172;-88
2021/12/16 05:51:19;;;;;;;35.13;22.40;;;11.70;99.90;;;;;;6312605;22;20157;-89
2021/12/16 05:53:46;;;;;;;38.97;22.00;;;11.70;99.90;;;;;;6312814;22;20172;-88
2021/12/16 05:56:12;;;;;;;42.10;22.30;;;11.70;99.90;;;;;;6312830;22;20147;-89
2021/12/16 05:58:38;;;;;;;35.57;21.77;;;11.60;99.90;;;;;;6312530;22;20152;-89
2021/12/16 06:01:08;;;;;;;37.57;21.73;;;11.60;99.90;;;;;;6313192;22;20177;-88
2021/12/16 06:03:34;;;;;;;37.40;22.30;;;11.70;99.90;;;;;;6312788;22;20168;-91
2021/12/16 06:06:00;;;;;;;35.67;23.37;;;11.60;99.90;;;;;;6312813;22;20477;-88
2021/12/16 06:08:26;;;;;;;36.63;21.93;;;11.60;99.90;;;;;;6312549;22;20147;-88
2021/12/16 06:13:35;;;;;;;35.13;22.00;;;11.70;99.90;;;;;;6339848;22;20157;-87
2021/12/16 06:29:35;;;;;;;37.70;22.20;;;11.50;99.90;;;;;;6339583;22;20157;-88
2021/12/16 06:32:01;;;;;;;36.90;22.53;;;11.40;99.90;;;;;;6338896;22;20146;-88
2021/12/16 06:34:27;;;;;;;41.80;23.17;;;11.50;99.90;;;;;;6339386;22;20620;-89
2021/12/16 06:36:53;;;;;;;38.37;22.27;;;11.50;99.90;;;;;;6311309;22;20184;-89
2021/12/16 06:39:18;;;;;;;41.70;23.70;;;11.70;99.90;;;;;;6339240;22;20165;-88
2021/12/16 06:41:44;;;;;;;39.17;21.93;;;11.60;99.90;;;;;;6311511;22;20196;-89
2021/12/16 06:44:23;;;;;;;37.80;22.37;;;11.50;99.90;;;;;;6339221;22;20166;-89
2021/12/16 06:46:52;;;;;;;42.70;22.07;;;11.50;99.90;;;;;;6309787;22;20202;-80
2021/12/16 06:49:19;;;;;;;41.23;23.17;;;11.40;99.90;;;;;;6297486;22;20173;-88
2021/12/16 06:51:53;;;;;;;36.40;22.77;;;11.70;99.90;;;;;;6309662;22;20206;-89
2021/12/16 06:54:34;;;;;;;39.43;21.83;;;11.70;99.90;;;;;;6311440;22;20218;-89
2021/12/16 06:57:16;;;;;;;37.10;22.53;;;11.50;99.90;;;;;;6338562;22;20145;-90
2021/12/16 06:59:52;;;;;;;35.97;21.43;;;11.60;99.90;;;;;;6311749;22;20227;-89
2021/12/16 07:02:38;;;;;;;38.17;23.33;;;11.80;99.90;;;;;;6311464;22;20192;-89
2021/12/16 07:05:06;;;;;;;45.10;24.40;;;11.80;99.90;;;;;;6305845;22;20169;-87
2021/12/16 07:07:32;;;;;;;37.83;22.63;;;11.80;99.90;;;;;;6301244;22;20245;-87
2021/12/16 07:09:58;;;;;;;40.47;23.63;;;11.80;99.90;;;;;;6309773;22;20590;-87
2021/12/16 07:12:35;;;;;;;44.50;24.03;;;11.60;99.90;;;;;;6310631;22;20204;-88
2021/12/16 07:15:03;;;;;;;39.50;23.03;;;11.50;99.90;;;;;;6286943;22;20222;-87
2021/12/16 07:17:28;;;;;;;38.53;23.20;;;11.40;99.90;;;;;;6331326;22;20141;-88
2021/12/16 07:19:54;;;;;;;37.27;22.83;;;11.40;99.90;;;;;;6310436;22;20212;-89
2021/12/16 07:22:20;;;;;;;37.80;21.70;;;11.40;99.90;;;;;;6305367;22;20649;-89
2021/12/16 07:24:45;;;;;;;35.90;22.10;;;11.20;99.90;;;;;;6310658;22;20202;-88
2021/12/16 07:27:12;;;;;;;35.87;21.63;;;11.20;99.90;;;;;;6308861;22;20192;-88
2021/12/16 07:29:37;;;;;;;46.43;21.90;;;11.60;99.90;;;;;;6337605;22;20165;-87
2021/12/16 07:32:04;;;;;;;38.73;22.23;;;11.50;99.90;;;;;;6310748;22;20164;-88
2021/12/16 07:34:30;;;;;;;36.67;22.27;;;11.50;99.90;;;;;;6338409;22;20145;-88
2021/12/16 07:36:59;;;;;;;39.47;22.70;;;11.50;99.90;;;;;;6337858;22;20617;-88
2021/12/16 07:39:30;;;;;;;40.73;22.33;;;11.70;99.90;;;;;;6337598;22;20137;-88
2021/12/16 07:41:57;;;;;;;43.27;22.53;;;11.70;99.90;;;;;;6338317;22;20182;-89
2021/12/16 07:44:24;;;;;;;44.47;23.83;;;11.80;99.90;;;;;;6337934;22;20190;-92
2021/12/16 07:46:54;;;;;;;42.27;23.87;;;11.60;99.90;;;;;;6334882;22;20216;-81
2021/12/16 07:49:24;;;;;;;39.33;23.03;;;11.70;99.90;;;;;;6312423;22;20153;-87
2021/12/16 07:51:49;;;;;;;42.07;22.43;;;11.50;99.90;;;;;;6314062;22;20152;-89
2021/12/16 07:54:17;;;;;;;40.53;22.23;;;11.50;99.90;;;;;;6312376;22;20153;-86
2021/12/16 07:56:44;;;;;;;47.20;22.67;;;11.70;99.90;;;;;;6313083;22;20156;-89
2021/12/16 07:59:10;;;;;;;39.77;23.23;;;11.80;99.90;;;;;;6312717;22;20152;-88
2021/12/16 08:01:39;;;;;;;39.43;22.60;;;11.80;99.90;;;;;;6313067;22;20259;-89
2021/12/16 08:04:04;;;;;;;44.63;24.20;;;11.90;99.90;;;;;;6339250;22;20153;-89
2021/12/16 08:06:32;;;;;;;36.90;22.73;;;11.90;99.90;;;;;;6339346;22;20533;-89
2021/12/16 08:09:02;;;;;;;37.40;21.60;;;11.60;99.90;;;;;;6310545;22;20172;-88
2021/12/16 08:11:31;;;;;;;43.70;22.87;;;11.40;99.90;;;;;;6310605;22;20149;-88
2021/12/16 08:13:56;;;;;;;38.93;22.13;;;11.40;99.90;;;;;;6336871;22;20161;-88
2021/12/16 08:16:23;;;;;;;43.57;23.50;;;11.50;99.90;;;;;;6311186;22;20191;-87
2021/12/16 08:18:50;;;;;;;39.27;23.13;;;11.70;99.90;;;;;;6312459;22;20149;-87
2021/12/16 08:21:16;;;;;;;39.97;22.10;;;11.80;99.90;;;;;;6339262;22;20185;-87
2021/12/16 08:23:44;;;;;;;44.67;23.47;;;11.80;99.90;;;;;;6339541;22;20187;-89
2021/12/16 08:26:10;;;;;;;37.27;22.20;;;11.80;99.90;;;;;;6338005;22;20527;-90
2021/12/16 08:28:35;;;;;;;43.30;23.50;;;11.90;99.90;;;;;;6311639;22;20146;-82
2021/12/16 08:31:01;;;;;;;44.30;22.87;;;12.00;99.90;;;;;;6338560;22;20145;-84
2021/12/16 08:33:27;;;;;;;37.80;22.17;;;12.10;99.90;;;;;;6339359;22;20613;-86
2021/12/16 08:35:54;;;;;;;40.17;22.53;;;12.00;99.90;;;;;;6338953;22;20141;-82
2021/12/16 08:38:23;;;;;;;39.40;23.23;;;11.90;99.90;;;;;;6338166;22;20145;-79
2021/12/16 08:40:52;;;;;;;45.97;23.73;;;12.10;99.90;;;;;;6311994;22;20184;-80
2021/12/16 08:43:19;;;;;;;38.73;23.23;;;12.00;99.90;;;;;;6337455;22;20149;-83
2021/12/16 08:45:46;;;;;;;39.00;23.53;;;12.00;99.90;;;;;;6309967;22;21009;-88
2021/12/16 08:48:12;;;;;;;44.23;23.13;;;11.90;99.90;;;;;;6337793;22;20562;-86
2021/12/16 08:50:44;;;;;;;43.20;23.40;;;11.70;99.90;;;;;;6312316;22;20157;-90
2021/12/16 08:53:11;;;;;;;42.70;23.53;;;11.70;99.90;;;;;;6312998;22;20145;-87
2021/12/16 08:55:38;;;;;;;40.60;23.40;;;11.80;99.90;;;;;;6311923;22;20184;-85
2021/12/16 08:58:05;;;;;;;42.53;22.40;;;11.80;99.90;;;;;;6311318;22;20211;-84
2021/12/16 09:00:37;;;;;;;37.40;22.80;;;11.80;99.90;;;;;;6310798;22;20181;-87
2021/12/16 09:03:03;;;;;;;37.83;21.90;;;11.90;99.90;;;;;;6311651;22;20213;-88
2021/12/16 09:05:29;;;;;;;39.93;23.13;;;11.90;99.90;;;;;;6339112;22;20190;-85
2021/12/16 09:07:56;;;;;;;37.57;21.93;;;11.80;99.90;;;;;;6339011;22;20133;-88
2021/12/16 09:10:28;;;;;;;38.33;21.97;;;11.60;99.90;;;;;;6312477;22;20511;-88
2021/12/16 09:15:39;;;;;;;36.47;22.40;;;11.90;99.90;;;;;;6341891;22;20237;-88
2021/12/16 09:18:06;;;;;;;41.90;23.83;;;12.20;99.90;;;;;;6310344;22;20617;-88
2021/12/16 09:20:33;;;;;;;39.90;23.03;;;12.20;99.90;;;;;;6339756;22;20195;-90
2021/12/16 09:22:59;;;;;;;41.57;22.47;;;12.00;99.90;;;;;;6312684;22;20172;-86
2021/12/16 09:25:25;;;;;;;41.57;23.53;;;11.80;99.90;;;;;;6312703;22;20194;-79
2021/12/16 09:27:52;;;;;;;42.43;24.20;;;11.80;99.90;;;;;;6312293;22;20524;-88
2021/12/16 09:30:21;;;;;;;41.00;23.33;;;11.90;99.90;;;;;;6312534;22;20141;-89
2021/12/16 09:32:48;;;;;;;38.80;23.13;;;12.10;99.90;;;;;;6339984;22;20213;-92
2021/12/16 09:35:14;;;;;;;41.87;23.13;;;12.00;99.90;;;;;;6312736;22;20145;-86
2021/12/16 09:37:39;;;;;;;41.63;23.27;;;12.10;99.90;;;;;;6313131;22;20259;-89
2021/12/16 09:40:14;;;;;;;37.57;22.07;;;12.10;99.90;;;;;;6312371;22;20631;-89
2021/12/16 09:42:40;;;;;;;38.73;21.87;;;12.20;99.90;;;;;;6313050;22;20215;-87
2021/12/16 09:45:08;;;;;;;35.27;22.33;;;12.10;99.90;;;;;;6339653;22;20177;-88
2021/12/16 09:47:38;;;;;;;40.23;23.47;;;12.10;99.90;;;;;;6313158;22;20145;-90
2021/12/16 09:50:09;;;;;;;40.23;22.80;;;12.30;99.90;;;;;;6313045;22;20150;-89
2021/12/16 09:52:35;;;;;;;46.50;23.90;;;12.30;99.90;;;;;;6312961;22;20146;-88
2021/12/16 09:55:01;;;;;;;37.63;23.57;;;12.30;99.90;;;;;;6338650;22;20198;-89
2021/12/16 09:57:28;;;;;;;43.20;23.87;;;12.50;99.90;;;;;;6338681;22;20157;-88
2021/12/16 09:59:55;;;;;;;37.90;23.30;;;12.50;99.90;;;;;;6339007;22;20145;-88
2021/12/16 10:02:21;;;;;;;39.40;22.60;;;12.30;99.90;;;;;;6339793;22;20176;-89
2021/12/16 10:04:48;;;;;;;41.00;22.77;;;12.10;99.90;;;;;;6340106;22;20160;-90
2021/12/16 10:07:22;;;;;;;42.13;23.43;;;12.10;99.90;;;;;;6312845;22;20149;-89
2021/12/16 10:09:50;;;;;;;41.90;22.30;;;12.20;99.90;;;;;;6312207;22;20195;-88
2021/12/16 10:12:20;;;;;;;38.10;23.33;;;12.40;99.90;;;;;;6312441;22;20177;-88
2021/12/16 10:17:24;;;;;;;35.00;22.00;;;12.30;99.90;;;;;;6340040;22;20141;-89
2021/12/16 10:19:50;;;;;;;41.13;24.17;;;12.40;99.90;;;;;;6312595;22;20145;-89
2021/12/16 10:22:34;;;;;;;38.27;22.20;;;12.70;99.90;;;;;;6339670;22;20263;-90
2021/12/16 10:25:24;;;;;;;40.30;22.70;;;12.60;99.90;;;;;;6312129;22;20655;-89
2021/12/16 10:27:53;;;;;;;40.77;24.30;;;12.50;99.90;;;;;;6312656;22;20149;-84
2021/12/16 10:30:18;;;;;;;40.93;23.50;;;12.50;99.90;;;;;;6340315;22;20208;-88
2021/12/16 10:32:48;;;;;;;35.83;22.40;;;12.50;99.90;;;;;;6339753;22;20165;-89
2021/12/16 10:35:25;;;;;;;41.50;23.87;;;12.70;99.90;;;;;;6339894;22;20483;-88
2021/12/16 10:37:54;;;;;;;35.70;22.07;;;12.70;99.90;;;;;;6311609;22;20149;-90
2021/12/16 10:40:35;;;;;;;42.10;22.37;;;12.80;99.90;;;;;;6312563;22;20138;-87
2021/12/16 10:43:29;;;;;;;40.07;21.67;;;12.70;99.90;;;;;;6339546;22;20187;-90
2021/12/16 10:46:08;;;;;;;43.13;24.00;;;12.80;99.90;;;;;;6300970;22;20163;-90
2021/12/16 10:48:43;;;;;;;40.90;22.23;;;13.10;99.90;;;;;;6339779;22;20234;-89
2021/12/16 10:51:11;;;;;;;42.10;21.13;;;12.90;99.90;;;;;;6312202;22;20218;-88
2021/12/16 10:54:15;;;;;;;36.63;20.83;;;13.00;99.90;;;;;;6311480;22;20149;-87
2021/12/16 10:56:50;;;;;;;39.40;22.30;;;13.00;99.90;;;;;;6285061;22;20184;-86
2021/12/16 10:59:24;;;;;;;38.80;22.60;;;13.00;99.90;;;;;;6312347;22;20210;-87
2021/12/16 11:02:11;;;;;;;35.43;22.37;;;13.10;99.90;;;;;;6311708;22;20453;-88
2021/12/16 11:05:00;;;;;;;41.47;22.97;;;13.20;99.90;;;;;;6339958;22;20195;-88
2021/12/16 11:07:33;;;;;;;34.53;21.40;;;13.50;99.90;;;;;;6310878;22;20576;-85
2021/12/16 11:10:08;;;;;;;39.57;22.80;;;13.60;99.90;;;;;;6337933;22;20232;-81
2021/12/16 11:12:53;;;;;;;38.20;22.00;;;13.60;99.90;;;;;;6339613;22;20127;-86
2021/12/16 11:15:39;;;;;;;37.50;21.33;;;13.70;99.90;;;;;;6311648;22;20157;-88
2021/12/16 11:18:09;;;;;;;39.77;22.27;;;14.00;99.90;;;;;;6337780;22;20147;-87
2021/12/16 11:20:47;;;;;;;39.03;22.23;;;14.10;99.90;;;;;;6312056;22;20176;-88
2021/12/16 11:23:27;;;;;;;36.37;21.00;;;14.20;99.90;;;;;;6338699;22;20186;-89
2021/12/16 11:25:59;;;;;;;38.13;20.80;;;14.50;99.90;;;;;;6339781;22;20137;-86
2021/12/16 11:28:46;;;;;;;34.33;20.17;;;15.00;99.90;;;;;;6339471;22;20126;-89
2021/12/16 11:31:20;;;;;;;36.67;19.33;;;15.00;99.90;;;;;;6310950;22;20178;-80
2021/12/16 11:33:52;;;;;;;31.90;18.67;;;15.20;99.90;;;;;;6310695;22;20223;-80
2021/12/16 11:36:21;;;;;;;31.83;18.23;;;16.50;99.90;;;;;;6336481;22;20152;-80
2021/12/16 11:39:09;;;;;;;25.43;16.67;;;17.30;99.90;;;;;;6337002;22;20153;-80
2021/12/16 11:41:48;;;;;;;33.30;18.63;;;17.60;99.90;;;;;;6310744;22;20204;-80
2021/12/16 11:44:29;;;;;;;31.13;19.73;;;17.60;99.90;;;;;;6310449;22;20175;-82
2021/12/16 11:47:03;;;;;;;36.60;19.93;;;17.00;99.90;;;;;;6310694;22;20236;-80
2021/12/16 11:52:07;;;;;;;32.73;19.83;;;16.20;99.90;;;;;;6331464;22;20290;-85
2021/12/16 12:29:42;;;;;;;31.80;17.77;;;19.40;99.90;;;;;;6332360;22;20193;-96
2021/12/16 12:47:17;;;;;;;33.63;19.40;;;16.50;99.90;;;;;;6160874;22;20273;-85
2021/12/16 13:36:49;;;;;;;23.17;13.13;;;15.50;99.90;;;;;;6067410;23;20168;-92
2021/12/16 13:42:54;;;;;;;;;;;;;;;;;;;;;
2021/12/16 14:24:17;;;;;;;27.33;13.83;;;14.50;99.90;;;;;;6338476;22;20188;-91
2021/12/16 14:37:33;;;;;;;24.90;12.93;;;13.80;99.90;;;;;;6349806;22;20139;-90
2021/12/16 14:40:23;;;;;;;23.33;13.03;;;13.90;99.90;;;;;;6312486;22;20152;-91
2021/12/16 14:43:18;;;;;;;23.10;13.23;;;13.80;99.90;;;;;;6302756;22;20705;-91
2021/12/16 14:45:56;;;;;;;26.30;14.90;;;14.10;99.90;;;;;;6281073;22;20142;-90
2021/12/16 14:48:28;;;;;;;28.37;13.83;;;14.20;99.90;;;;;;6281173;22;20163;-90
2021/12/16 14:51:07;;;;;;;23.50;14.70;;;13.80;99.90;;;;;;6280735;22;20165;-89
2021/12/16 14:53:39;;;;;;;23.80;14.17;;;13.60;99.90;;;;;;6280853;22;20149;-89
2021/12/16 14:56:16;;;;;;;24.43;15.60;;;13.50;99.90;;;;;;6280998;22;20150;-89
2021/12/16 14:58:45;;;;;;;27.10;15.37;;;13.40;99.90;;;;;;6280845;22;20145;-91
2021/12/16 15:01:19;;;;;;;22.77;13.43;;;13.40;99.90;;;;;;6280759;22;20188;-86
2021/12/16 15:03:47;;;;;;;27.17;15.13;;;13.40;99.90;;;;;;6280666;22;20162;-85
2021/12/16 15:06:20;;;;;;;25.80;14.70;;;13.30;99.90;;;;;;6281593;22;20149;-88
2021/12/16 15:09:10;;;;;;;29.30;15.93;;;13.40;99.90;;;;;;6281815;22;20160;-91
2021/12/16 17:41:11;;;;;;;47.70;25.67;;;10.80;99.90;;;;;;6292270;22;20193;-89
2021/12/16 17:43:42;;;;;;;41.80;25.07;;;10.80;99.90;;;;;;6310687;22;20626;-87
2021/12/16 17:46:11;;;;;;;45.67;27.83;;;10.70;99.90;;;;;;6339647;22;20205;-89
2021/12/16 17:48:42;;;;;;;55.13;29.67;;;10.90;99.90;;;;;;6312357;22;20146;-86
2021/12/16 17:51:18;;;;;;;60.10;33.20;;;10.90;99.90;;;;;;6312876;22;20142;-89
2021/12/16 17:53:59;;;;;;;53.00;32.20;;;10.60;99.90;;;;;;6312404;22;20144;-89
2021/12/16 17:56:26;;;;;;;54.27;30.30;;;10.70;99.90;;;;;;6312753;22;20529;-84
2021/12/16 17:58:57;;;;;;;59.73;30.83;;;10.60;99.90;;;;;;6312713;22;20666;-89
2021/12/16 18:01:27;;;;;;;51.53;29.90;;;10.70;99.90;;;;;;6312045;22;20181;-88
2021/12/16 18:04:08;;;;;;;56.20;31.07;;;10.90;99.90;;;;;;6339611;22;20164;-89
2021/12/16 18:06:47;;;;;;;48.07;28.90;;;11.00;99.90;;;;;;6312291;22;20232;-88
2021/12/16 18:09:36;;;;;;;54.73;28.93;;;10.80;99.90;;;;;;6312669;22;20148;-88
2021/12/16 18:54:45;;;;;;;370.90;155.70;;;10.40;99.90;;;;;;6300254;22;20200;-90
2021/12/16 18:57:15;;;;;;;366.57;158.87;;;10.50;99.90;;;;;;6311611;22;20231;-91
2021/12/16 18:59:44;;;;;;;235.37;114.83;;;10.60;99.90;;;;;;6311985;22;20153;-93
2021/12/16 19:02:14;;;;;;;212.23;96.60;;;10.40;99.90;;;;;;6307170;22;20188;-89
2021/12/16 19:04:43;;;;;;;335.07;163.47;;;10.20;99.90;;;;;;6309562;22;20150;-91
2021/12/16 19:07:17;;;;;;;242.70;109.87;;;10.20;99.90;;;;;;6310712;22;20175;-92
2021/12/16 19:09:46;;;;;;;245.67;113.97;;;10.10;99.90;;;;;;6309595;22;20144;-91
2021/12/16 19:12:15;;;;;;;228.50;110.37;;;10.10;99.90;;;;;;6310155;22;20149;-91
2021/12/16 19:14:45;;;;;;;174.70;84.60;;;10.10;99.90;;;;;;6310166;22;20216;-90
2021/12/16 19:17:14;;;;;;;177.07;82.53;;;10.20;99.90;;;;;;6309657;22;20175;-92
2021/12/16 19:19:40;;;;;;;156.33;73.37;;;10.10;99.90;;;;;;6336815;22;20149;-92
2021/12/16 19:22:10;;;;;;;138.73;65.10;;;10.10;99.90;;;;;;6309514;22;20195;-89
2021/12/16 19:24:37;;;;;;;158.67;74.63;;;10.20;99.90;;;;;;6309745;22;20154;-91
2021/12/16 19:27:08;;;;;;;144.23;66.27;;;10.10;99.90;;;;;;6310255;22;20150;-91
2021/12/16 19:29:35;;;;;;;117.17;54.03;;;9.80;99.90;;;;;;6310853;22;20149;-91
2021/12/16 19:32:02;;;;;;;107.97;53.37;;;9.60;99.90;;;;;;6310673;22;20165;-93
2021/12/16 19:34:29;;;;;;;116.67;57.50;;;9.80;99.90;;;;;;6310653;22;20141;-91
2021/12/16 19:36:55;;;;;;;93.13;46.60;;;9.90;99.90;;;;;;6312194;22;20152;-94
2021/12/16 19:39:21;;;;;;;114.13;56.73;;;10.10;99.90;;;;;;6311565;22;20464;-95
2021/12/16 19:41:47;;;;;;;97.30;48.57;;;10.10;99.90;;;;;;6311044;22;20184;-94
2021/12/16 19:44:15;;;;;;;95.50;46.77;;;10.10;99.90;;;;;;6311572;22;20226;-91
2021/12/16 19:46:43;;;;;;;98.40;51.70;;;10.30;99.90;;;;;;6313172;22;20157;-89
2021/12/16 19:49:11;;;;;;;104.90;47.67;;;10.20;99.90;;;;;;6312535;22;20153;-92
2021/12/16 19:51:37;;;;;;;103.97;49.93;;;10.10;99.90;;;;;;6312701;22;20153;-91
2021/12/16 19:54:06;;;;;;;98.10;48.83;;;9.90;99.90;;;;;;6313032;22;20149;-93
2021/12/16 19:56:32;;;;;;;79.33;42.03;;;9.70;99.90;;;;;;6313191;22;20172;-88
2021/12/16 19:58:58;;;;;;;83.73;46.23;;;9.60;99.90;;;;;;6312467;22;20153;-92
2021/12/16 20:01:26;;;;;;;108.93;53.03;;;9.90;99.90;;;;;;6312567;22;20547;-92
2021/12/16 20:04:04;;;;;;;687.67;361.03;;;10.10;99.90;;;;;;6309051;22;20153;-93
2021/12/16 20:06:32;;;;;;;422.20;209.10;;;10.00;99.90;;;;;;6312302;22;20145;-92
2021/12/16 20:08:59;;;;;;;379.17;158.73;;;9.90;99.90;;;;;;6312723;22;20153;-93
2021/12/16 20:11:30;;;;;;;201.40;89.70;;;10.10;99.90;;;;;;6313050;22;20156;-91
2021/12/16 20:13:57;;;;;;;153.97;70.47;;;9.90;99.90;;;;;;6312840;22;20178;-94
2021/12/16 20:16:28;;;;;;;146.43;65.27;;;10.10;99.90;;;;;;6313728;22;20218;-92
2021/12/16 20:18:55;;;;;;;135.23;60.33;;;9.90;99.90;;;;;;6312509;22;20148;-93
2021/12/16 20:21:26;;;;;;;135.03;62.57;;;9.90;99.90;;;;;;6312179;22;20304;-92
2021/12/16 20:23:53;;;;;;;146.20;64.53;;;9.70;99.90;;;;;;6312331;22;20153;-91
2021/12/16 20:26:25;;;;;;;132.63;58.17;;;9.70;99.90;;;;;;6312158;22;20149;-89
2021/12/16 20:29:04;;;;;;;128.63;58.57;;;9.50;99.90;;;;;;6312611;22;20153;-90
2021/12/16 20:31:41;;;;;;;121.30;55.57;;;9.50;99.90;;;;;;6312973;22;20208;-89
2021/12/16 20:34:11;;;;;;;105.23;49.47;;;9.30;99.90;;;;;;6311989;22;20212;-92
2021/12/16 20:36:42;;;;;;;98.90;48.57;;;9.10;99.90;;;;;;6312506;22;20157;-93
2021/12/16 20:39:33;;;;;;;92.40;47.10;;;9.10;99.90;;;;;;6312266;22;20145;-92
2021/12/16 20:42:09;;;;;;;87.07;44.80;;;9.10;99.90;;;;;;6312148;22;20199;-91
2021/12/16 20:44:37;;;;;;;96.63;48.80;;;9.30;99.90;;;;;;6312236;22;20145;-92
2021/12/16 20:47:07;;;;;;;89.13;45.97;;;9.20;99.90;;;;;;6311076;22;20248;-92
2021/12/16 20:49:37;;;;;;;87.50;45.70;;;9.10;99.90;;;;;;6312325;22;20152;-90
2021/12/16 20:52:12;;;;;;;91.00;45.43;;;9.10;99.90;;;;;;6312176;22;20176;-91
2021/12/16 20:54:42;;;;;;;97.30;49.13;;;9.30;99.90;;;;;;6312060;22;20171;-91
2021/12/16 20:57:10;;;;;;;94.83;49.90;;;9.40;99.90;;;;;;6312748;22;20180;-91
2021/12/16 20:59:38;;;;;;;97.97;47.90;;;9.30;99.90;;;;;;6312306;22;20582;-92
2021/12/16 21:02:10;;;;;;;98.77;47.43;;;9.20;99.90;;;;;;6311669;22;20192;-91
2021/12/16 21:04:39;;;;;;;85.43;46.07;;;9.20;99.90;;;;;;6312582;22;20559;-91
2021/12/16 21:07:09;;;;;;;96.23;49.80;;;9.20;99.90;;;;;;6311988;22;20153;-90
2021/12/16 21:09:35;;;;;;;90.87;46.10;;;9.10;99.90;;;;;;6338343;22;20156;-91
2021/12/16 21:12:03;;;;;;;79.43;42.57;;;9.20;99.90;;;;;;6312821;22;20486;-92
2021/12/16 21:14:29;;;;;;;92.93;45.10;;;9.30;99.90;;;;;;6312318;22;20149;-91
2021/12/16 21:16:55;;;;;;;83.83;43.07;;;9.20;99.90;;;;;;6311894;22;20152;-92
2021/12/16 21:19:21;;;;;;;88.70;45.60;;;9.10;99.90;;;;;;6312149;22;20210;-92
2021/12/16 21:21:48;;;;;;;163.13;73.40;;;9.20;99.90;;;;;;6312054;22;20217;-88
2021/12/16 21:24:14;;;;;;;93.00;48.10;;;9.10;99.90;;;;;;6339726;22;20150;-92
2021/12/16 21:26:41;;;;;;;116.83;52.33;;;9.00;99.90;;;;;;6311611;22;20153;-91
2021/12/16 21:29:10;;;;;;;101.27;50.33;;;9.10;99.90;;;;;;6312099;22;20156;-91
2021/12/16 21:31:37;;;;;;;101.40;51.97;;;9.00;99.90;;;;;;6311161;22;20160;-91
2021/12/16 21:34:12;;;;;;;91.27;47.67;;;9.10;99.90;;;;;;6311550;22;20492;-91
2021/12/16 21:36:39;;;;;;;88.03;44.43;;;8.90;99.90;;;;;;6311049;22;20152;-92
2021/12/16 21:39:10;;;;;;;78.63;43.67;;;8.80;99.90;;;;;;6312591;22;20236;-91
2021/12/16 21:41:36;;;;;;;87.03;44.87;;;8.90;99.90;;;;;;6313234;22;20185;-92
2021/12/16 21:44:03;;;;;;;80.33;43.13;;;8.90;99.90;;;;;;6312509;22;20224;-91
2021/12/16 21:46:29;;;;;;;87.90;46.00;;;8.90;99.90;;;;;;6311622;22;20230;-90
2021/12/16 21:48:55;;;;;;;89.80;44.43;;;8.80;99.90;;;;;;6313562;22;20147;-92
2021/12/16 21:51:23;;;;;;;82.73;44.03;;;8.70;99.90;;;;;;6313686;22;20145;-92
2021/12/16 21:53:49;;;;;;;81.27;42.57;;;8.60;99.90;;;;;;6313093;22;20214;-90
2021/12/16 21:56:15;;;;;;;84.33;44.17;;;8.50;99.90;;;;;;6312708;22;20157;-91
2021/12/16 21:58:44;;;;;;;74.90;41.37;;;8.50;99.90;;;;;;6313442;22;20155;-88
2021/12/16 22:01:14;;;;;;;76.93;41.47;;;8.60;99.90;;;;;;6312732;22;20180;-91
2021/12/16 22:03:45;;;;;;;73.80;41.17;;;8.70;99.90;;;;;;6313430;22;20157;-89
2021/12/16 22:06:11;;;;;;;74.97;39.27;;;8.70;99.90;;;;;;6313178;22;20648;-91
2021/12/16 22:08:37;;;;;;;79.60;42.73;;;8.80;99.90;;;;;;6313632;22;20239;-92
2021/12/16 22:11:05;;;;;;;72.80;41.57;;;9.00;99.90;;;;;;6312652;22;20226;-92